createdAt,value
2019-03-21T00:00:05.131Z,102652.76
2019-03-21T00:02:40.340Z,102646.53
2019-03-21T00:05:14.461Z,102646.53
2019-03-21T00:07:48.132Z,102643.83
2019-03-21T00:11:16.083Z,102646.87
2019-03-21T00:13:50.600Z,102637.15
2019-03-21T00:16:24.498Z,102648.48
2019-03-21T00:18:58.128Z,102650.70
2019-03-21T00:21:31.812Z,102653.73
2019-03-21T00:24:05.644Z,102657.27
2019-03-21T00:26:39.268Z,102655.05
2019-03-21T00:29:13.003Z,102649.30
2019-03-21T00:31:46.673Z,102656.29
2019-03-21T00:34:20.438Z,102654.03
2019-03-21T00:36:54.068Z,102654.78
2019-03-21T00:39:32.928Z,102656.92
2019-03-21T00:42:05.744Z,102655.27
2019-03-21T00:44:39.463Z,102656.52
2019-03-21T00:47:13.184Z,102650.84
2019-03-21T00:49:46.807Z,102649.12
2019-03-21T00:52:20.451Z,102642.06
2019-03-21T00:54:54.139Z,102649.53
2019-03-21T00:57:27.755Z,102655.20
2019-03-21T01:00:01.372Z,102657.83
2019-03-21T01:02:35.273Z,102657.48
2019-03-21T01:05:09.672Z,102655.27
2019-03-21T01:07:43.194Z,102650.84
2019-03-21T01:10:18.238Z,102657.34
2019-03-21T01:12:52.801Z,102650.77
2019-03-21T01:15:26.382Z,102650.28
2019-03-21T01:18:00.017Z,102647.66
2019-03-21T01:20:36.404Z,102644.58
2019-03-21T01:23:10.087Z,102644.92
2019-03-21T01:25:48.186Z,102634.83
2019-03-21T01:28:21.853Z,102636.06
2019-03-21T01:30:55.484Z,102632.88
2019-03-21T01:33:29.101Z,102623.13
2019-03-21T01:36:02.711Z,102623.53
2019-03-21T01:38:36.487Z,102620.91
2019-03-21T01:41:10.059Z,102622.15
2019-03-21T01:43:44.705Z,102619.00
2019-03-21T01:46:18.727Z,102618.02
2019-03-21T01:48:52.306Z,102610.55
2019-03-21T01:51:25.999Z,102616.55
2019-03-21T01:53:59.521Z,102620.23
2019-03-21T01:56:33.646Z,102626.87
2019-03-21T01:59:07.332Z,102631.34
2019-03-21T02:01:41.113Z,102625.26
2019-03-21T02:04:14.635Z,102622.64
2019-03-21T02:06:48.526Z,102622.30
2019-03-21T02:09:22.199Z,102628.94
2019-03-21T02:11:55.820Z,102626.72
2019-03-21T02:14:29.306Z,102626.31
2019-03-21T02:17:02.928Z,102621.06
2019-03-21T02:19:36.487Z,102623.23
2019-03-21T02:22:10.139Z,102626.77
2019-03-21T02:24:43.832Z,102625.04
2019-03-21T02:27:17.395Z,102618.99
2019-03-21T02:29:51.027Z,102614.00
2019-03-21T02:32:24.578Z,102615.54
2019-03-21T02:34:58.213Z,102611.19
2019-03-21T02:37:31.766Z,102608.15
2019-03-21T02:40:05.854Z,102609.95
2019-03-21T02:42:39.486Z,102610.89
2019-03-21T02:45:14.828Z,102611.78
2019-03-21T02:47:48.487Z,102618.77
2019-03-21T02:50:33.865Z,102609.58
2019-03-21T02:53:07.650Z,102607.84
2019-03-21T02:55:41.358Z,102613.06
2019-03-21T02:58:14.963Z,102618.24
2019-03-21T03:00:48.510Z,102618.66
2019-03-21T03:03:22.060Z,102616.37
2019-03-21T03:05:55.626Z,102619.06
2019-03-21T03:08:29.270Z,102624.55
2019-03-21T03:11:03.312Z,102623.23
2019-03-21T03:13:36.635Z,102623.53
2019-03-21T03:16:10.285Z,102615.73
2019-03-21T03:18:44.031Z,102617.45
2019-03-21T03:21:18.773Z,102623.53
2019-03-21T03:23:52.362Z,102618.70
2019-03-21T03:26:25.964Z,102613.37
2019-03-21T03:28:59.528Z,102611.23
2019-03-21T03:31:33.259Z,102614.76
2019-03-21T03:34:06.883Z,102620.42
2019-03-21T03:36:40.586Z,102618.70
2019-03-21T03:39:14.178Z,102623.46
2019-03-21T03:41:47.827Z,102619.94
2019-03-21T03:44:21.380Z,102622.11
2019-03-21T03:46:54.963Z,102622.15
2019-03-21T03:49:28.629Z,102620.83
2019-03-21T03:52:02.249Z,102621.73
2019-03-21T03:54:35.916Z,102634.04
2019-03-21T03:57:09.621Z,102628.94
2019-03-21T03:59:43.251Z,102631.56
2019-03-21T04:02:16.859Z,102628.08
2019-03-21T04:04:50.689Z,102626.77
2019-03-21T04:07:24.268Z,102629.77
2019-03-21T04:09:57.892Z,102631.08
2019-03-21T04:12:31.482Z,102630.59
2019-03-21T04:15:05.150Z,102627.55
2019-03-21T04:17:38.715Z,102631.90
2019-03-21T04:20:15.296Z,102633.70
2019-03-21T04:22:48.948Z,102637.23
2019-03-21T04:25:27.260Z,102637.23
2019-03-21T04:28:00.983Z,102624.55
2019-03-21T04:30:34.561Z,102625.86
2019-03-21T04:33:08.261Z,102632.88
2019-03-21T04:35:42.063Z,102632.42
2019-03-21T04:38:15.773Z,102637.75
2019-03-21T04:40:49.458Z,102644.84
2019-03-21T04:43:23.482Z,102639.17
2019-03-21T04:46:03.382Z,102636.63
2019-03-21T04:48:32.483Z,102637.56
2019-03-21T04:51:07.225Z,102640.64
2019-03-21T04:53:40.956Z,102645.11
2019-03-21T04:56:14.468Z,102645.59
2019-03-21T04:58:48.115Z,102648.14
2019-03-21T05:01:21.804Z,102657.83
2019-03-21T05:03:55.369Z,102652.98
2019-03-21T05:06:28.869Z,102658.73
2019-03-21T05:09:02.503Z,102661.84
2019-03-21T05:11:36.180Z,102662.73
2019-03-21T05:14:09.813Z,102664.54
2019-03-21T05:16:44.530Z,102662.86
2019-03-21T05:19:18.118Z,102666.38
2019-03-21T05:21:51.771Z,102667.21
2019-03-21T05:24:25.377Z,102668.11
2019-03-21T05:26:59.051Z,102663.34
2019-03-21T05:29:33.052Z,102665.48
2019-03-21T05:32:06.725Z,102666.38
2019-03-21T05:34:40.426Z,102671.78
2019-03-21T05:37:14.074Z,102668.67
2019-03-21T05:39:47.654Z,102663.08
2019-03-21T05:42:24.247Z,102662.78
2019-03-21T05:44:57.886Z,102662.89
2019-03-21T05:47:31.546Z,102665.25
2019-03-21T05:50:05.616Z,102666.34
2019-03-21T05:52:39.281Z,102665.62
2019-03-21T05:55:13.064Z,102663.63
2019-03-21T05:57:46.690Z,102672.48
2019-03-21T06:00:25.661Z,102679.51
2019-03-21T06:02:59.338Z,102690.58
2019-03-21T06:05:33.340Z,102689.38
2019-03-21T06:08:30.180Z,102697.27
2019-03-21T06:11:03.763Z,102702.07
2019-03-21T06:13:37.385Z,102702.48
2019-03-21T06:16:13.215Z,102706.05
2019-03-21T06:19:18.543Z,102715.47
2019-03-21T06:22:30.595Z,102714.34
2019-03-21T06:25:37.303Z,102718.47
2019-03-21T06:28:11.012Z,102711.32
2019-03-21T06:30:44.691Z,102722.72
2019-03-21T06:33:18.405Z,102723.47
2019-03-21T06:35:51.955Z,102722.23
2019-03-21T06:38:25.537Z,102721.23
2019-03-21T06:40:59.201Z,102723.09
2019-03-21T06:43:32.725Z,102723.08
2019-03-21T06:46:06.319Z,102729.64
2019-03-21T06:48:39.993Z,102725.09
2019-03-21T06:51:13.658Z,102720.59
2019-03-21T06:53:47.179Z,102723.94
2019-03-21T06:56:20.672Z,102722.08
2019-03-21T06:58:54.285Z,102725.00
2019-03-21T07:01:27.808Z,102723.77
2019-03-21T07:04:07.011Z,102727.11
2019-03-21T07:06:36.578Z,102726.08
2019-03-21T07:09:11.543Z,102727.28
2019-03-21T07:11:45.077Z,102727.56
2019-03-21T07:14:18.685Z,102728.52
2019-03-21T07:17:00.071Z,102735.44
2019-03-21T07:19:27.523Z,102739.06
2019-03-21T07:22:01.063Z,102735.80
2019-03-21T07:24:34.772Z,102744.63
2019-03-21T07:27:08.333Z,102749.69
2019-03-21T07:29:42.066Z,102745.66
2019-03-21T07:32:15.551Z,102749.89
2019-03-21T07:34:49.055Z,102759.90
2019-03-21T07:37:22.635Z,102755.31
2019-03-21T07:39:56.192Z,102756.63
2019-03-21T07:42:29.884Z,102759.39
2019-03-21T07:45:03.445Z,102757.86
2019-03-21T07:47:37.138Z,102753.63
2019-03-21T07:50:12.339Z,102758.30
2019-03-21T07:52:45.951Z,102762.31
2019-03-21T07:55:19.479Z,102755.24
2019-03-21T07:57:53.108Z,102755.09
2019-03-21T08:00:26.762Z,102761.95
2019-03-21T08:03:00.440Z,102760.72
2019-03-21T08:05:40.197Z,102764.38
2019-03-21T08:08:09.404Z,102761.55
2019-03-21T08:10:43.117Z,102762.76
2019-03-21T08:13:16.630Z,102750.96
2019-03-21T08:15:50.161Z,102759.33
2019-03-21T08:18:23.787Z,102765.84
2019-03-21T08:20:59.897Z,102766.74
2019-03-21T08:23:33.920Z,102781.30
2019-03-21T08:26:07.661Z,102778.96
2019-03-21T08:28:41.802Z,102779.45
2019-03-21T08:31:20.017Z,102780.70
2019-03-21T08:33:53.597Z,102778.12
2019-03-21T08:36:27.245Z,102774.23
2019-03-21T08:39:00.907Z,102770.27
2019-03-21T08:41:36.025Z,102771.47
2019-03-21T08:44:09.703Z,102772.66
2019-03-21T08:46:43.500Z,102763.74
2019-03-21T08:49:17.015Z,102772.34
2019-03-21T08:51:50.660Z,102760.82
2019-03-21T08:54:24.260Z,102762.92
2019-03-21T08:56:57.876Z,102771.53
2019-03-21T08:59:31.447Z,102772.55
2019-03-21T09:02:05.010Z,102769.09
2019-03-21T09:04:38.648Z,102771.17
2019-03-21T09:07:12.260Z,102762.45
2019-03-21T09:09:45.861Z,102767.55
2019-03-21T09:12:19.388Z,102762.99
2019-03-21T09:14:53.057Z,102769.94
2019-03-21T09:17:26.769Z,102768.64
2019-03-21T09:20:00.465Z,102762.92
2019-03-21T09:22:34.226Z,102767.31
2019-03-21T09:25:08.735Z,102771.05
2019-03-21T09:27:42.490Z,102767.45
2019-03-21T09:30:16.298Z,102774.22
2019-03-21T09:32:49.869Z,102776.50
2019-03-21T09:35:23.437Z,102782.45
2019-03-21T09:37:57.061Z,102773.80
2019-03-21T09:40:30.802Z,102765.05
2019-03-21T09:43:04.304Z,102768.66
2019-03-21T09:45:37.950Z,102756.36
2019-03-21T09:48:11.506Z,102761.06
2019-03-21T09:50:45.001Z,102759.93
2019-03-21T09:53:18.645Z,102765.51
2019-03-21T09:55:52.323Z,102763.45
2019-03-21T09:58:26.057Z,102764.23
2019-03-21T10:00:59.677Z,102758.61
2019-03-21T10:03:33.345Z,102762.37
2019-03-21T10:06:06.872Z,102756.81
2019-03-21T10:08:40.594Z,102754.50
2019-03-21T10:11:14.126Z,102751.23
2019-03-21T10:13:47.664Z,102747.88
2019-03-21T10:16:21.206Z,102748.21
2019-03-21T10:18:54.724Z,102761.98
2019-03-21T10:21:28.218Z,102766.96
2019-03-21T10:24:01.704Z,102767.66
2019-03-21T10:26:35.234Z,102769.75
2019-03-21T10:29:08.807Z,102772.29
2019-03-21T10:31:42.419Z,102775.14
2019-03-21T10:34:15.993Z,102776.20
2019-03-21T10:36:49.610Z,102775.22
2019-03-21T10:39:24.453Z,102770.30
2019-03-21T10:41:58.092Z,102769.58
2019-03-21T10:44:31.662Z,102770.74
2019-03-21T10:47:05.241Z,102760.27
2019-03-21T10:49:38.803Z,102761.55
2019-03-21T10:52:12.475Z,102766.77
2019-03-21T10:54:46.097Z,102762.48
2019-03-21T10:57:19.699Z,102754.72
2019-03-21T10:59:53.221Z,102756.98
2019-03-21T11:02:26.730Z,102745.78
2019-03-21T11:05:00.302Z,102742.37
2019-03-21T11:07:34.050Z,102739.71
2019-03-21T11:10:08.870Z,102738.73
2019-03-21T11:12:42.787Z,102729.23
2019-03-21T11:15:16.805Z,102734.29
2019-03-21T11:17:51.061Z,102722.00
2019-03-21T11:20:41.522Z,102720.06
2019-03-21T11:23:15.299Z,102725.26
2019-03-21T11:25:49.169Z,102723.30
2019-03-21T11:28:22.987Z,102716.61
2019-03-21T11:30:58.058Z,102711.92
2019-03-21T11:33:31.928Z,102717.56
2019-03-21T11:36:05.915Z,102703.76
2019-03-21T11:38:39.672Z,102697.64
2019-03-21T11:41:13.368Z,102699.25
2019-03-21T11:43:47.050Z,102695.59
2019-03-21T11:46:20.964Z,102695.27
2019-03-21T11:48:54.665Z,102696.30
2019-03-21T11:51:28.501Z,102699.75
2019-03-21T11:54:02.173Z,102699.05
2019-03-21T11:56:35.748Z,102702.27
2019-03-21T11:59:09.454Z,102695.17
2019-03-21T12:01:46.255Z,102696.14
2019-03-21T12:04:19.868Z,102688.75
2019-03-21T12:06:54.635Z,102686.73
2019-03-21T12:09:28.408Z,102685.62
2019-03-21T12:12:02.139Z,102681.22
2019-03-21T12:14:35.754Z,102682.86
2019-03-21T12:17:09.362Z,102684.08
2019-03-21T12:19:43.018Z,102685.98
2019-03-21T12:22:16.607Z,102683.02
2019-03-21T12:24:50.211Z,102687.55
2019-03-21T12:27:23.846Z,102684.07
2019-03-21T12:29:57.712Z,102685.55
2019-03-21T12:32:31.424Z,102684.13
2019-03-21T12:35:05.599Z,102681.58
2019-03-21T12:37:39.288Z,102682.59
2019-03-21T12:40:12.861Z,102686.81
2019-03-21T12:42:46.586Z,102691.03
2019-03-21T12:45:20.177Z,102691.13
2019-03-21T12:47:55.271Z,102685.45
2019-03-21T12:50:28.881Z,102685.53
2019-03-21T12:53:02.483Z,102678.40
2019-03-21T12:55:36.187Z,102684.36
2019-03-21T12:58:09.867Z,102680.54
2019-03-21T13:00:44.928Z,102677.23
2019-03-21T13:03:18.649Z,102669.11
2019-03-21T13:05:52.331Z,102666.69
2019-03-21T13:08:33.631Z,102665.08
2019-03-21T13:11:01.284Z,102670.94
2019-03-21T13:13:34.954Z,102662.23
2019-03-21T13:16:08.684Z,102657.89
2019-03-21T13:18:42.682Z,102654.94
2019-03-21T13:21:16.200Z,102653.63
2019-03-21T13:23:49.989Z,102648.88
2019-03-21T13:26:23.598Z,102649.95
2019-03-21T13:28:57.257Z,102646.53
2019-03-21T13:31:32.506Z,102646.70
2019-03-21T13:34:06.550Z,102645.67
2019-03-21T13:36:40.191Z,102638.73
2019-03-21T13:39:13.800Z,102640.58
2019-03-21T13:41:47.279Z,102641.25
2019-03-21T13:44:20.841Z,102633.59
2019-03-21T13:46:54.790Z,102633.88
2019-03-21T13:49:28.369Z,102634.22
2019-03-21T13:52:04.589Z,102634.78
2019-03-21T13:54:37.164Z,102620.89
2019-03-21T13:57:10.811Z,102621.07
2019-03-21T13:59:44.353Z,102613.13
2019-03-21T14:02:18.058Z,102618.61
2019-03-21T14:04:51.582Z,102612.59
2019-03-21T14:07:25.143Z,102608.20
2019-03-21T14:09:58.804Z,102609.23
2019-03-21T14:12:32.298Z,102608.33
2019-03-21T14:15:08.331Z,102605.64
2019-03-21T14:17:42.147Z,102607.81
2019-03-21T14:20:17.081Z,102603.33
2019-03-21T14:22:50.696Z,102609.39
2019-03-21T14:25:24.283Z,102606.99
2019-03-21T14:27:57.812Z,102609.21
2019-03-21T14:30:31.425Z,102614.84
2019-03-21T14:33:05.124Z,102616.53
2019-03-21T14:35:38.931Z,102621.94
2019-03-21T14:38:25.857Z,102614.62
2019-03-21T14:40:52.905Z,102609.66
2019-03-21T14:43:26.564Z,102613.15
2019-03-21T14:46:00.287Z,102609.50
2019-03-21T14:48:33.986Z,102612.52
2019-03-21T14:51:07.711Z,102616.95
2019-03-21T14:53:41.339Z,102617.23
2019-03-21T14:56:15.070Z,102621.96
2019-03-21T14:58:48.777Z,102618.78
2019-03-21T15:01:22.615Z,102622.28
2019-03-21T15:03:56.319Z,102621.75
2019-03-21T15:06:29.823Z,102622.17
2019-03-21T15:09:04.108Z,102620.84
2019-03-21T15:11:38.512Z,102622.19
2019-03-21T15:14:14.361Z,102621.85
2019-03-21T15:16:47.973Z,102624.97
2019-03-21T15:19:25.462Z,102621.77
2019-03-21T15:21:59.038Z,102633.17
2019-03-21T15:24:32.654Z,102627.73
2019-03-21T15:27:06.291Z,102624.09
2019-03-21T15:29:39.927Z,102631.49
2019-03-21T15:32:13.435Z,102628.64
2019-03-21T15:34:46.967Z,102626.31
2019-03-21T15:37:20.532Z,102624.94
2019-03-21T15:39:54.066Z,102624.45
2019-03-21T15:42:27.584Z,102620.86
2019-03-21T15:45:15.754Z,102618.64
2019-03-21T15:47:36.816Z,102613.78
2019-03-21T15:50:14.428Z,102608.45
2019-03-21T15:52:48.024Z,102610.59
2019-03-21T15:55:21.616Z,102606.05
2019-03-21T15:57:55.775Z,102616.56
2019-03-21T16:00:40.641Z,102619.69
2019-03-21T16:03:14.925Z,102606.95
2019-03-21T16:05:48.542Z,102613.35
2019-03-21T16:08:22.112Z,102613.35
2019-03-21T16:10:55.771Z,102612.48
2019-03-21T16:13:31.398Z,102610.59
2019-03-21T16:16:05.151Z,102607.46
2019-03-21T16:18:38.842Z,102609.88
2019-03-21T16:21:12.721Z,102604.92
2019-03-21T16:23:46.425Z,102598.25
2019-03-21T16:26:20.196Z,102605.59
2019-03-21T16:28:53.785Z,102602.89
2019-03-21T16:31:27.426Z,102603.36
2019-03-21T16:34:00.964Z,102601.20
2019-03-21T16:36:34.574Z,102601.14
2019-03-21T16:39:09.835Z,102608.12
2019-03-21T16:41:44.503Z,102604.10
2019-03-21T16:44:18.135Z,102602.66
2019-03-21T16:46:51.993Z,102603.91
2019-03-21T16:49:25.528Z,102600.28
2019-03-21T16:51:59.244Z,102604.81
2019-03-21T16:54:34.153Z,102605.18
2019-03-21T16:57:07.793Z,102605.46
2019-03-21T16:59:41.474Z,102603.70
2019-03-21T17:02:15.140Z,102596.58
2019-03-21T17:04:48.843Z,102602.22
2019-03-21T17:07:22.501Z,102602.58
2019-03-21T17:09:58.053Z,102607.33
2019-03-21T17:12:31.462Z,102611.70
2019-03-21T17:15:05.628Z,102618.06
2019-03-21T17:17:39.883Z,102611.27
2019-03-21T17:20:22.606Z,102617.82
2019-03-21T17:22:56.355Z,102624.35
2019-03-21T17:25:31.480Z,102626.34
2019-03-21T17:28:05.568Z,102616.91
2019-03-21T17:30:39.599Z,102613.25
2019-03-21T17:33:13.339Z,102614.94
2019-03-21T17:35:47.407Z,102616.61
2019-03-21T17:38:21.061Z,102615.66
2019-03-21T17:40:54.872Z,102615.94
2019-03-21T17:43:28.526Z,102620.27
2019-03-21T17:46:03.347Z,102620.64
2019-03-21T17:48:39.342Z,102625.44
2019-03-21T17:51:13.304Z,102628.47
2019-03-21T17:53:47.105Z,102634.12
2019-03-21T17:56:20.768Z,102630.52
2019-03-21T17:58:54.834Z,102637.52
2019-03-21T18:01:28.558Z,102644.95
2019-03-21T18:04:02.207Z,102636.09
2019-03-21T18:06:35.843Z,102637.34
2019-03-21T18:09:10.426Z,102642.20
2019-03-21T18:11:44.017Z,102647.96
2019-03-21T18:14:17.615Z,102648.50
2019-03-21T18:16:51.197Z,102641.91
2019-03-21T18:19:24.751Z,102647.18
2019-03-21T18:21:58.360Z,102644.90
2019-03-21T18:24:32.049Z,102646.28
2019-03-21T18:27:05.739Z,102644.95
2019-03-21T18:29:39.359Z,102642.80
2019-03-21T18:32:12.927Z,102641.91
2019-03-21T18:34:46.566Z,102636.09
2019-03-21T18:37:20.303Z,102643.95
2019-03-21T18:39:54.028Z,102636.85
2019-03-21T18:42:27.590Z,102638.65
2019-03-21T18:45:02.220Z,102643.50
2019-03-21T18:47:35.816Z,102640.05
2019-03-21T18:50:10.430Z,102645.27
2019-03-21T18:52:43.983Z,102639.97
2019-03-21T18:55:17.650Z,102648.78
2019-03-21T18:57:53.308Z,102651.00
2019-03-21T19:00:27.970Z,102639.97
2019-03-21T19:03:01.704Z,102641.29
2019-03-21T19:05:35.361Z,102648.30
2019-03-21T19:08:09.055Z,102647.77
2019-03-21T19:10:42.684Z,102645.97
2019-03-21T19:13:16.283Z,102651.23
2019-03-21T19:15:53.858Z,102650.33
2019-03-21T19:18:28.261Z,102656.05
2019-03-21T19:21:08.364Z,102644.58
2019-03-21T19:23:43.107Z,102652.56
2019-03-21T19:26:16.678Z,102650.35
2019-03-21T19:28:50.250Z,102651.73
2019-03-21T19:31:23.879Z,102651.73
2019-03-21T19:33:57.575Z,102653.94
2019-03-21T19:36:31.152Z,102651.36
2019-03-21T19:39:06.825Z,102644.40
2019-03-21T19:41:40.552Z,102639.56
2019-03-21T19:44:14.161Z,102639.98
2019-03-21T19:46:47.768Z,102632.00
2019-03-21T19:49:21.380Z,102630.67
2019-03-21T19:51:55.002Z,102626.72
2019-03-21T19:54:28.657Z,102630.25
2019-03-21T19:57:02.356Z,102632.08
2019-03-21T19:59:35.942Z,102633.92
2019-03-21T20:02:09.527Z,102634.29
2019-03-21T20:04:43.178Z,102627.25
2019-03-21T20:07:16.887Z,102625.88
2019-03-21T20:09:50.655Z,102616.11
2019-03-21T20:12:24.246Z,102622.23
2019-03-21T20:14:58.022Z,102619.40
2019-03-21T20:17:31.715Z,102622.87
2019-03-21T20:20:06.660Z,102632.51
2019-03-21T20:22:41.051Z,102627.70
2019-03-21T20:25:15.286Z,102625.38
2019-03-21T20:27:49.026Z,102636.41
2019-03-21T20:30:22.791Z,102628.91
2019-03-21T20:32:56.451Z,102634.25
2019-03-21T20:35:30.022Z,102631.08
2019-03-21T20:38:03.530Z,102631.47
2019-03-21T20:40:39.254Z,102632.31
2019-03-21T20:43:13.052Z,102627.03
2019-03-21T20:45:46.783Z,102635.79
2019-03-21T20:48:28.975Z,102631.30
2019-03-21T20:51:02.589Z,102637.81
2019-03-21T20:53:36.240Z,102639.91
2019-03-21T20:56:09.778Z,102637.19
2019-03-21T20:58:43.501Z,102634.49
2019-03-21T21:01:17.124Z,102637.13
2019-03-21T21:03:50.690Z,102639.70
2019-03-21T21:06:24.345Z,102634.77
2019-03-21T21:08:58.014Z,102633.03
2019-03-21T21:11:31.530Z,102640.34
2019-03-21T21:14:05.197Z,102636.78
2019-03-21T21:16:38.830Z,102636.30
2019-03-21T21:19:12.399Z,102637.56
2019-03-21T21:21:45.901Z,102636.58
2019-03-21T21:24:19.523Z,102630.71
2019-03-21T21:26:53.106Z,102635.50
2019-03-21T21:29:26.723Z,102643.38
2019-03-21T21:32:00.303Z,102645.14
2019-03-21T21:34:34.047Z,102637.63
2019-03-21T21:37:07.732Z,102632.36
2019-03-21T21:39:41.355Z,102626.13
2019-03-21T21:42:14.965Z,102635.27
2019-03-21T21:44:48.615Z,102639.67
2019-03-21T21:47:22.123Z,102640.55
2019-03-21T21:49:55.692Z,102643.11
2019-03-21T21:52:41.237Z,102643.05
2019-03-21T21:55:04.876Z,102640.27
2019-03-21T21:57:38.552Z,102640.69
2019-03-21T22:00:14.958Z,102635.84
2019-03-21T22:02:48.585Z,102639.38
2019-03-21T22:05:22.174Z,102631.53
2019-03-21T22:07:55.768Z,102630.57
2019-03-21T22:10:29.670Z,102630.15
2019-03-21T22:13:03.334Z,102627.88
2019-03-21T22:15:37.025Z,102637.03
2019-03-21T22:18:10.542Z,102635.69
2019-03-21T22:20:44.126Z,102637.78
2019-03-21T22:23:17.647Z,102626.28
2019-03-21T22:25:51.181Z,102631.20
2019-03-21T22:28:24.901Z,102632.45
2019-03-21T22:30:58.583Z,102630.23
2019-03-21T22:33:33.355Z,102633.77
2019-03-21T22:36:08.118Z,102633.55
2019-03-21T22:38:41.718Z,102634.39
2019-03-21T22:41:15.224Z,102624.54
2019-03-21T22:43:48.760Z,102624.03
2019-03-21T22:46:22.259Z,102623.97
2019-03-21T22:48:55.883Z,102629.41
2019-03-21T22:51:29.449Z,102630.23
2019-03-21T22:54:04.049Z,102622.69
2019-03-21T22:56:41.499Z,102624.66
2019-03-21T22:59:12.850Z,102632.30
2019-03-21T23:01:46.356Z,102625.59
2019-03-21T23:04:19.927Z,102622.38
2019-03-21T23:06:53.480Z,102628.12
2019-03-21T23:09:27.178Z,102628.97
2019-03-21T23:12:00.686Z,102625.44
2019-03-21T23:14:34.220Z,102629.45
2019-03-21T23:17:07.770Z,102620.10
2019-03-21T23:19:41.425Z,102614.00
2019-03-21T23:22:14.919Z,102614.90
2019-03-21T23:24:48.486Z,102614.48
2019-03-21T23:27:22.069Z,102608.31
2019-03-21T23:29:55.684Z,102615.44
2019-03-21T23:32:29.265Z,102612.20
2019-03-21T23:35:02.965Z,102613.94
2019-03-21T23:37:38.421Z,102605.87
2019-03-21T23:40:12.913Z,102615.52
2019-03-21T23:42:46.645Z,102621.74
2019-03-21T23:45:20.290Z,102619.59
2019-03-21T23:47:53.847Z,102618.62
2019-03-21T23:50:28.444Z,102615.45
2019-03-21T23:53:01.911Z,102611.89
2019-03-21T23:55:35.511Z,102604.83
2019-03-21T23:58:09.159Z,102605.50
